createdAt,value
2019-03-16T00:01:56.246Z,7.40
2019-03-16T00:04:20.891Z,9.33
2019-03-16T00:06:58.414Z,7.80
2019-03-16T00:09:35.911Z,8.97
2019-03-16T00:12:13.432Z,6.47
2019-03-16T00:14:50.976Z,12.20
2019-03-16T00:17:28.504Z,13.60
2019-03-16T00:20:06.590Z,8.37
2019-03-16T00:22:44.089Z,14.03
2019-03-16T00:25:21.572Z,11.60
2019-03-16T00:27:59.097Z,7.50
2019-03-16T00:30:36.567Z,11.27
2019-03-16T00:33:14.082Z,9.33
2019-03-16T00:35:51.568Z,10.50
2019-03-16T00:38:29.073Z,11.87
2019-03-16T00:41:06.564Z,11.17
2019-03-16T00:43:44.378Z,9.10
2019-03-16T00:46:21.881Z,8.93
2019-03-16T00:48:59.421Z,9.70
2019-03-16T00:51:36.903Z,12.77
2019-03-16T00:54:14.526Z,7.47
2019-03-16T00:56:52.021Z,7.17
2019-03-16T00:59:29.532Z,9.27
2019-03-16T01:02:07.024Z,7.77
2019-03-16T01:04:44.530Z,8.70
2019-03-16T01:07:22.058Z,8.20
2019-03-16T01:09:59.539Z,11.40
2019-03-16T01:12:37.079Z,11.17
2019-03-16T01:15:14.555Z,13.73
2019-03-16T01:17:52.075Z,6.23
2019-03-16T01:20:29.552Z,10.67
2019-03-16T01:23:07.074Z,12.40
2019-03-16T01:25:44.559Z,8.67
2019-03-16T01:28:22.081Z,5.63
2019-03-16T01:30:59.566Z,13.90
2019-03-16T01:33:37.104Z,10.87
2019-03-16T01:36:14.580Z,13.97
2019-03-16T01:38:52.098Z,10.27
2019-03-16T01:41:29.579Z,8.93
2019-03-16T01:44:07.101Z,5.13
2019-03-16T01:46:44.587Z,8.33
2019-03-16T01:49:22.136Z,8.17
2019-03-16T01:51:59.636Z,11.57
2019-03-16T01:54:37.143Z,9.70
2019-03-16T01:57:14.627Z,11.57
2019-03-16T01:59:52.167Z,8.50
2019-03-16T02:02:29.651Z,6.63
2019-03-16T02:05:07.695Z,8.17
2019-03-16T02:07:45.180Z,11.77
2019-03-16T02:10:22.745Z,5.17
2019-03-16T02:13:00.266Z,8.87
2019-03-16T02:15:37.740Z,10.57
2019-03-16T02:18:15.259Z,7.03
2019-03-16T02:20:52.752Z,6.77
2019-03-16T02:23:30.280Z,9.07
2019-03-16T02:26:07.763Z,12.97
2019-03-16T02:28:45.301Z,10.13
2019-03-16T02:31:22.892Z,8.93
2019-03-16T02:34:00.335Z,14.20
2019-03-16T02:36:37.810Z,9.07
2019-03-16T02:39:15.340Z,8.10
2019-03-16T02:41:53.100Z,10.80
2019-03-16T02:44:30.604Z,8.17
2019-03-16T02:47:08.084Z,8.00
2019-03-16T02:49:45.626Z,10.07
2019-03-16T02:52:23.108Z,10.93
2019-03-16T02:55:00.665Z,11.17
2019-03-16T02:57:38.119Z,8.50
2019-03-16T03:00:15.707Z,10.97
2019-03-16T03:02:53.199Z,11.33
2019-03-16T03:05:30.743Z,12.07
2019-03-16T03:08:08.232Z,15.50
2019-03-16T03:10:45.738Z,16.17
2019-03-16T03:13:23.249Z,8.53
2019-03-16T03:16:00.765Z,7.90
2019-03-16T03:18:38.300Z,11.07
2019-03-16T03:21:15.796Z,11.93
2019-03-16T03:23:53.317Z,13.93
2019-03-16T03:26:30.803Z,12.03
2019-03-16T03:29:08.366Z,8.27
2019-03-16T03:31:45.883Z,10.03
2019-03-16T03:34:23.451Z,7.63
2019-03-16T03:37:00.890Z,9.40
2019-03-16T03:39:38.421Z,7.90
2019-03-16T03:42:15.932Z,15.40
2019-03-16T03:44:53.460Z,9.00
2019-03-16T03:47:30.944Z,13.10
2019-03-16T03:50:09.539Z,12.47
2019-03-16T03:52:47.031Z,9.03
2019-03-16T03:55:24.542Z,11.17
2019-03-16T03:58:02.027Z,9.93
2019-03-16T04:00:39.526Z,9.13
2019-03-16T04:03:17.011Z,10.87
2019-03-16T04:05:54.544Z,16.20
2019-03-16T04:08:32.022Z,8.80
2019-03-16T04:11:09.530Z,9.00
2019-03-16T04:13:47.039Z,9.93
2019-03-16T04:16:24.561Z,6.90
2019-03-16T04:19:02.065Z,9.73
2019-03-16T04:21:39.553Z,10.73
2019-03-16T04:24:17.080Z,12.27
2019-03-16T04:26:54.566Z,13.23
2019-03-16T04:29:32.103Z,8.67
2019-03-16T04:32:09.619Z,8.63
2019-03-16T04:34:47.159Z,8.97
2019-03-16T04:37:24.635Z,8.83
2019-03-16T04:40:02.182Z,11.03
2019-03-16T04:42:39.651Z,9.67
2019-03-16T04:45:17.190Z,10.97
2019-03-16T04:47:54.680Z,7.40
2019-03-16T04:50:32.194Z,9.87
2019-03-16T04:53:09.686Z,5.87
2019-03-16T04:55:47.194Z,9.87
2019-03-16T04:58:24.689Z,8.90
2019-03-16T05:01:02.208Z,8.33
2019-03-16T05:03:39.695Z,5.73
2019-03-16T05:06:17.213Z,7.17
2019-03-16T05:08:54.710Z,8.10
2019-03-16T05:11:32.243Z,7.97
2019-03-16T05:14:09.724Z,7.73
2019-03-16T05:16:47.266Z,8.10
2019-03-16T05:19:24.808Z,7.17
2019-03-16T05:22:02.324Z,8.20
2019-03-16T05:24:39.841Z,8.53
2019-03-16T05:27:17.351Z,7.67
2019-03-16T05:29:54.869Z,9.30
2019-03-16T05:32:32.349Z,7.93
2019-03-16T05:35:10.229Z,9.80
2019-03-16T05:37:47.707Z,12.10
2019-03-16T05:40:25.255Z,6.60
2019-03-16T05:43:02.770Z,10.97
2019-03-16T05:45:40.296Z,7.77
2019-03-16T05:48:17.786Z,6.57
2019-03-16T05:50:57.448Z,9.23
2019-03-16T05:53:32.849Z,6.43
2019-03-16T05:56:10.348Z,11.83
2019-03-16T05:58:47.846Z,8.30
2019-03-16T06:01:25.376Z,10.90
2019-03-16T06:04:02.874Z,8.27
2019-03-16T06:06:40.397Z,6.63
2019-03-16T06:09:17.905Z,10.10
2019-03-16T06:11:55.416Z,11.63
2019-03-16T06:14:32.913Z,14.33
2019-03-16T06:17:10.445Z,6.90
2019-03-16T06:19:47.933Z,8.63
2019-03-16T06:22:25.433Z,8.63
2019-03-16T06:25:02.981Z,10.27
2019-03-16T06:27:40.491Z,11.90
2019-03-16T06:30:20.699Z,8.33
2019-03-16T06:32:55.515Z,11.93
2019-03-16T06:35:33.140Z,6.93
2019-03-16T06:38:10.650Z,8.47
2019-03-16T06:40:48.178Z,6.33
2019-03-16T06:43:25.654Z,11.20
2019-03-16T06:46:03.185Z,7.17
2019-03-16T06:48:40.712Z,7.87
2019-03-16T06:51:18.237Z,11.00
2019-03-16T06:53:55.817Z,8.13
2019-03-16T06:56:33.342Z,10.07
2019-03-16T06:59:10.837Z,14.70
2019-03-16T07:01:48.372Z,7.43
2019-03-16T07:04:25.870Z,8.73
2019-03-16T07:07:03.401Z,11.50
2019-03-16T07:09:40.896Z,8.40
2019-03-16T07:12:18.458Z,8.90
2019-03-16T07:14:55.943Z,8.53
2019-03-16T07:17:33.548Z,9.27
2019-03-16T07:20:11.144Z,11.03
2019-03-16T07:22:48.672Z,9.80
2019-03-16T07:25:26.202Z,10.40
2019-03-16T07:28:03.696Z,7.77
2019-03-16T07:30:41.217Z,8.37
2019-03-16T07:33:18.713Z,11.27
2019-03-16T07:35:56.241Z,7.83
2019-03-16T07:38:33.743Z,14.17
2019-03-16T07:41:11.262Z,7.93
2019-03-16T07:43:48.778Z,9.63
2019-03-16T07:46:26.341Z,9.77
2019-03-16T07:49:03.862Z,10.73
2019-03-16T07:51:41.411Z,5.60
2019-03-16T07:54:24.438Z,12.43
2019-03-16T07:57:02.042Z,9.87
2019-03-16T07:59:39.516Z,14.27
2019-03-16T08:02:17.028Z,11.90
2019-03-16T08:04:54.522Z,14.27
2019-03-16T08:07:32.053Z,13.40
2019-03-16T08:10:10.132Z,13.30
2019-03-16T08:12:47.665Z,11.73
2019-03-16T08:15:27.950Z,8.43
2019-03-16T08:18:02.681Z,7.97
2019-03-16T08:20:40.201Z,9.07
2019-03-16T08:23:17.691Z,6.87
2019-03-16T08:25:55.219Z,8.77
2019-03-16T08:28:32.711Z,12.63
2019-03-16T08:31:10.218Z,4.80
2019-03-16T08:33:47.702Z,7.53
2019-03-16T08:36:25.224Z,12.37
2019-03-16T08:39:02.723Z,7.87
2019-03-16T08:41:40.234Z,7.43
2019-03-16T08:44:17.726Z,5.20
2019-03-16T08:46:55.306Z,9.20
2019-03-16T08:49:32.759Z,6.80
2019-03-16T08:52:10.266Z,11.57
2019-03-16T08:54:47.793Z,8.47
2019-03-16T08:57:25.310Z,8.50
2019-03-16T09:00:02.825Z,8.40
2019-03-16T09:02:40.330Z,9.77
2019-03-16T09:05:17.849Z,6.83
2019-03-16T09:07:55.350Z,5.90
2019-03-16T09:10:32.914Z,6.87
2019-03-16T09:13:10.452Z,7.27
2019-03-16T09:15:47.930Z,6.37
2019-03-16T09:18:25.474Z,7.67
2019-03-16T09:21:02.988Z,6.83
2019-03-16T09:23:40.518Z,10.70
2019-03-16T09:26:18.072Z,7.93
2019-03-16T09:28:59.945Z,5.97
2019-03-16T09:31:33.174Z,6.47
2019-03-16T09:34:10.670Z,7.67
2019-03-16T09:36:48.193Z,9.13
2019-03-16T09:39:25.691Z,7.00
2019-03-16T09:42:03.197Z,6.07
2019-03-16T09:44:40.682Z,9.10
2019-03-16T09:47:18.235Z,9.87
2019-03-16T09:49:55.759Z,7.93
2019-03-16T09:52:33.288Z,6.23
2019-03-16T09:55:12.062Z,4.50
2019-03-16T09:57:49.580Z,4.77
2019-03-16T10:00:27.062Z,10.60
2019-03-16T10:03:04.584Z,5.20
2019-03-16T10:05:42.084Z,8.43
2019-03-16T10:08:19.609Z,7.43
2019-03-16T10:10:57.110Z,10.60
2019-03-16T10:13:34.958Z,9.77
2019-03-16T10:16:12.454Z,17.40
2019-03-16T10:18:49.968Z,12.53
2019-03-16T10:21:27.458Z,12.60
2019-03-16T10:24:04.972Z,9.00
2019-03-16T10:26:43.068Z,6.57
2019-03-16T10:29:20.560Z,8.77
2019-03-16T10:31:58.861Z,12.37
2019-03-16T10:34:36.425Z,8.40
2019-03-16T10:37:14.075Z,10.00
2019-03-16T10:39:52.349Z,10.60
2019-03-16T10:42:29.870Z,11.23
2019-03-16T10:45:07.728Z,10.63
2019-03-16T10:47:45.232Z,10.17
2019-03-16T10:50:22.772Z,10.40
2019-03-16T10:53:00.279Z,7.90
2019-03-16T10:55:37.790Z,10.57
2019-03-16T10:58:15.686Z,14.87
2019-03-16T11:00:53.202Z,15.20
2019-03-16T11:03:30.730Z,11.93
2019-03-16T11:06:08.702Z,16.17
2019-03-16T11:08:46.240Z,13.83
2019-03-16T11:11:23.720Z,9.77
2019-03-16T11:14:01.293Z,9.47
2019-03-16T11:16:38.803Z,11.63
2019-03-16T11:19:16.348Z,10.33
2019-03-16T11:21:53.834Z,9.40
2019-03-16T11:24:31.374Z,10.30
2019-03-16T11:27:08.911Z,12.27
2019-03-16T11:29:46.669Z,10.20
2019-03-16T11:32:24.190Z,10.53
2019-03-16T11:35:01.729Z,10.03
2019-03-16T11:37:39.237Z,11.43
2019-03-16T11:40:17.403Z,9.80
2019-03-16T11:42:54.936Z,5.80
2019-03-16T11:45:32.711Z,8.27
2019-03-16T11:48:10.257Z,9.57
2019-03-16T11:50:48.783Z,6.77
2019-03-16T11:53:25.300Z,8.13
2019-03-16T11:56:02.779Z,9.23
2019-03-16T11:58:40.309Z,10.83
2019-03-16T12:01:17.817Z,9.17
2019-03-16T12:03:55.325Z,10.87
2019-03-16T12:06:32.815Z,8.73
2019-03-16T12:09:11.345Z,8.33
2019-03-16T12:11:48.826Z,9.73
2019-03-16T12:14:26.342Z,8.90
2019-03-16T12:17:03.835Z,9.03
2019-03-16T12:19:41.372Z,6.00
2019-03-16T12:22:18.868Z,5.50
2019-03-16T12:24:56.388Z,6.97
2019-03-16T12:27:33.905Z,7.57
2019-03-16T12:30:11.484Z,6.87
2019-03-16T12:32:48.995Z,4.97
2019-03-16T12:35:26.491Z,6.67
2019-03-16T12:38:04.033Z,6.63
2019-03-16T12:40:41.530Z,6.03
2019-03-16T12:43:19.175Z,5.20
2019-03-16T12:45:56.722Z,6.10
2019-03-16T12:48:34.300Z,7.17
2019-03-16T12:51:11.807Z,5.53
2019-03-16T12:53:49.339Z,4.87
2019-03-16T12:56:26.951Z,5.97
2019-03-16T12:59:10.361Z,5.67
2019-03-16T13:01:41.987Z,5.73
2019-03-16T13:04:19.527Z,5.50
2019-03-16T13:06:57.035Z,5.17
2019-03-16T13:09:34.553Z,5.50
2019-03-16T13:12:12.069Z,4.47
2019-03-16T13:14:49.582Z,7.63
2019-03-16T13:17:27.107Z,4.27
2019-03-16T13:20:04.751Z,5.47
2019-03-16T13:22:43.634Z,5.17
2019-03-16T13:25:19.820Z,3.90
2019-03-16T13:27:57.305Z,4.03
2019-03-16T13:30:34.810Z,4.87
2019-03-16T13:33:13.614Z,5.07
2019-03-16T13:35:51.087Z,5.23
2019-03-16T13:38:28.603Z,4.47
2019-03-16T13:41:06.150Z,5.70
2019-03-16T13:43:43.798Z,6.77
2019-03-16T13:46:21.336Z,4.70
2019-03-16T13:48:58.898Z,4.30
2019-03-16T13:51:36.400Z,4.43
2019-03-16T13:54:14.058Z,4.57
2019-03-16T13:56:51.519Z,3.73
2019-03-16T13:59:29.045Z,3.70
2019-03-16T14:02:06.673Z,3.17
2019-03-16T14:04:44.232Z,3.20
2019-03-16T14:07:21.764Z,5.40
2019-03-16T14:09:59.293Z,6.67
2019-03-16T14:12:36.788Z,3.20
2019-03-16T14:15:14.371Z,4.73
2019-03-16T14:17:51.919Z,5.23
2019-03-16T14:20:29.452Z,2.93
2019-03-16T14:23:07.506Z,2.70
2019-03-16T14:25:45.027Z,2.50
2019-03-16T14:28:22.532Z,2.10
2019-03-16T14:31:00.058Z,3.03
2019-03-16T14:33:37.749Z,1.37
2019-03-16T14:36:15.387Z,2.93
2019-03-16T14:38:52.824Z,2.03
2019-03-16T14:41:30.336Z,1.57
2019-03-16T14:44:07.877Z,2.43
2019-03-16T14:46:46.375Z,2.23
2019-03-16T14:49:24.534Z,4.90
2019-03-16T14:52:02.541Z,2.40
2019-03-16T14:54:40.961Z,2.77
2019-03-16T14:57:19.129Z,2.23
2019-03-16T14:59:59.453Z,1.90
2019-03-16T15:02:35.571Z,3.27
2019-03-16T15:05:14.077Z,1.73
2019-03-16T15:07:52.105Z,0.60
2019-03-16T15:10:29.627Z,1.67
2019-03-16T15:13:07.176Z,2.07
2019-03-16T15:15:44.788Z,1.73
2019-03-16T15:18:22.285Z,1.50
2019-03-16T15:20:59.851Z,1.43
2019-03-16T15:23:37.342Z,2.47
2019-03-16T15:26:14.951Z,2.67
2019-03-16T15:28:55.071Z,1.83
2019-03-16T15:31:29.937Z,1.97
2019-03-16T15:34:07.492Z,1.57
2019-03-16T15:36:45.028Z,3.40
2019-03-16T15:39:22.547Z,1.93
2019-03-16T15:42:00.073Z,1.70
2019-03-16T15:44:38.244Z,0.90
2019-03-16T15:47:15.183Z,2.30
2019-03-16T15:49:52.747Z,1.17
2019-03-16T15:52:30.264Z,3.03
2019-03-16T15:55:07.847Z,2.27
2019-03-16T15:57:45.393Z,1.63
2019-03-16T16:00:22.925Z,1.87
2019-03-16T16:03:00.671Z,2.10
2019-03-16T16:05:38.197Z,0.90
2019-03-16T16:08:16.253Z,2.30
2019-03-16T16:11:00.977Z,1.23
2019-03-16T16:13:30.928Z,1.13
2019-03-16T16:16:08.703Z,1.30
2019-03-16T16:18:46.191Z,2.40
2019-03-16T16:21:23.722Z,2.07
2019-03-16T16:24:01.239Z,3.10
2019-03-16T16:26:38.747Z,1.97
2019-03-16T16:29:16.266Z,2.03
2019-03-16T16:31:53.768Z,1.20
2019-03-16T16:34:31.291Z,1.87
2019-03-16T16:37:08.831Z,2.23
2019-03-16T16:39:46.433Z,1.43
2019-03-16T16:42:23.935Z,1.60
2019-03-16T16:45:01.487Z,2.93
2019-03-16T16:47:38.997Z,1.03
2019-03-16T16:50:17.413Z,4.73
2019-03-16T16:52:54.999Z,3.37
2019-03-16T16:55:32.559Z,1.60
2019-03-16T16:58:10.105Z,2.70
2019-03-16T17:00:47.695Z,1.30
2019-03-16T17:03:25.237Z,2.17
2019-03-16T17:06:02.769Z,1.20
2019-03-16T17:08:40.305Z,4.93
2019-03-16T17:11:17.847Z,1.97
2019-03-16T17:13:55.394Z,1.30
2019-03-16T17:16:32.921Z,1.30
2019-03-16T17:19:10.409Z,1.57
2019-03-16T17:21:47.940Z,1.20
2019-03-16T17:24:25.427Z,2.20
2019-03-16T17:27:02.942Z,1.43
2019-03-16T17:29:40.435Z,1.10
2019-03-16T17:32:17.990Z,1.10
2019-03-16T17:34:55.524Z,1.57
2019-03-16T17:37:33.076Z,4.47
2019-03-16T17:40:11.132Z,2.67
2019-03-16T17:42:48.634Z,2.67
2019-03-16T17:45:26.155Z,2.80
2019-03-16T17:48:03.696Z,2.73
2019-03-16T17:50:41.247Z,2.60
2019-03-16T17:53:21.316Z,1.97
2019-03-16T17:55:58.829Z,2.07
2019-03-16T17:58:36.380Z,2.43
2019-03-16T18:01:13.930Z,3.83
2019-03-16T18:03:51.472Z,6.03
2019-03-16T18:06:36.266Z,2.10
2019-03-16T18:09:13.787Z,2.57
2019-03-16T18:11:51.374Z,2.73
2019-03-16T18:14:28.902Z,3.03
2019-03-16T18:17:06.433Z,2.50
2019-03-16T18:19:43.935Z,2.80
2019-03-16T18:22:21.491Z,3.60
2019-03-16T18:24:59.051Z,2.80
2019-03-16T18:27:36.888Z,2.47
2019-03-16T18:30:16.504Z,4.10
2019-03-16T18:32:54.112Z,2.60
2019-03-16T18:35:31.713Z,3.03
2019-03-16T18:38:09.297Z,4.23
2019-03-16T18:40:47.023Z,2.73
2019-03-16T18:43:24.858Z,2.50
2019-03-16T18:46:02.468Z,3.47
2019-03-16T18:48:40.029Z,3.73
2019-03-16T18:51:17.623Z,5.43
2019-03-16T18:53:55.266Z,4.70
2019-03-16T18:56:32.847Z,4.93
2019-03-16T18:59:10.414Z,4.33
2019-03-16T19:01:48.029Z,3.67
2019-03-16T19:05:01.091Z,2.83
2019-03-16T19:07:38.917Z,2.90
2019-03-16T19:10:16.612Z,4.83
2019-03-16T19:12:54.207Z,5.87
2019-03-16T19:15:31.902Z,8.83
2019-03-16T19:18:09.714Z,7.20
2019-03-16T19:20:47.331Z,10.70
2019-03-16T19:23:24.958Z,6.57
2019-03-16T19:26:02.553Z,8.53
2019-03-16T19:28:40.126Z,6.00
2019-03-16T19:31:17.710Z,4.80
2019-03-16T19:33:55.274Z,5.33
2019-03-16T19:36:32.896Z,4.87
2019-03-16T19:39:10.762Z,4.53
2019-03-16T19:41:48.387Z,7.10
2019-03-16T19:44:25.916Z,8.43
2019-03-16T19:47:03.601Z,6.03
2019-03-16T19:49:41.263Z,6.83
2019-03-16T19:52:19.012Z,3.97
2019-03-16T19:54:57.675Z,5.80
2019-03-16T19:57:34.364Z,2.70
2019-03-16T20:00:13.890Z,4.60
2019-03-16T20:02:51.953Z,7.73
2019-03-16T20:05:28.972Z,4.33
2019-03-16T20:08:06.512Z,6.97
2019-03-16T20:10:44.097Z,3.57
2019-03-16T20:13:21.754Z,3.97
2019-03-16T20:15:59.298Z,5.67
2019-03-16T20:18:36.855Z,5.00
2019-03-16T20:21:14.379Z,6.17
2019-03-16T20:23:51.981Z,4.50
2019-03-16T20:26:29.652Z,4.33
2019-03-16T20:29:08.017Z,6.30
2019-03-16T20:31:47.039Z,6.23
2019-03-16T20:34:22.320Z,7.80
2019-03-16T20:36:59.868Z,6.07
2019-03-16T20:39:37.752Z,4.40
2019-03-16T20:42:15.295Z,5.47
2019-03-16T20:44:52.805Z,4.97
2019-03-16T20:47:31.239Z,5.33
2019-03-16T20:50:08.988Z,6.13
2019-03-16T20:52:46.536Z,5.07
2019-03-16T20:55:24.039Z,7.53
2019-03-16T20:58:01.593Z,8.07
2019-03-16T21:00:39.123Z,4.23
2019-03-16T21:03:16.729Z,4.63
2019-03-16T21:05:54.268Z,5.40
2019-03-16T21:08:31.894Z,6.87
2019-03-16T21:11:09.523Z,4.47
2019-03-16T21:13:47.184Z,7.63
2019-03-16T21:16:24.790Z,8.30
2019-03-16T21:19:02.446Z,7.43
2019-03-16T21:21:40.034Z,6.20
2019-03-16T21:24:17.580Z,4.03
2019-03-16T21:26:55.206Z,7.63
2019-03-16T21:29:32.702Z,4.23
2019-03-16T21:32:10.287Z,6.80
2019-03-16T21:34:47.825Z,5.67
2019-03-16T21:37:26.609Z,5.50
2019-03-16T21:40:02.824Z,7.50
2019-03-16T21:42:40.367Z,5.00
2019-03-16T21:45:17.859Z,6.90
2019-03-16T21:47:59.963Z,7.73
2019-03-16T21:50:32.918Z,6.67
2019-03-16T21:53:10.432Z,5.27
2019-03-16T21:55:47.911Z,6.13
2019-03-16T21:58:25.593Z,7.27
2019-03-16T22:01:03.074Z,5.40
2019-03-16T22:03:41.905Z,5.67
2019-03-16T22:06:18.543Z,7.07
2019-03-16T22:09:11.437Z,8.83
2019-03-16T22:11:51.885Z,6.90
2019-03-16T22:14:31.455Z,9.13
2019-03-16T22:17:08.903Z,5.93
2019-03-16T22:19:46.408Z,8.80
2019-03-16T22:22:23.914Z,7.63
2019-03-16T22:25:11.579Z,6.67
2019-03-16T22:27:51.514Z,7.73
2019-03-16T22:30:26.547Z,8.00
2019-03-16T22:33:04.049Z,6.37
2019-03-16T22:35:41.544Z,6.77
2019-03-16T22:38:19.923Z,7.23
2019-03-16T22:40:57.431Z,5.43
2019-03-16T22:43:34.970Z,5.20
2019-03-16T22:46:12.470Z,5.17
2019-03-16T22:48:49.970Z,5.03
2019-03-16T22:51:27.482Z,5.90
2019-03-16T22:54:05.002Z,8.37
2019-03-16T22:56:42.524Z,5.13
2019-03-16T22:59:20.200Z,4.43
2019-03-16T23:01:57.690Z,6.50
2019-03-16T23:04:35.196Z,7.63
2019-03-16T23:07:12.688Z,9.03
2019-03-16T23:09:50.199Z,8.57
2019-03-16T23:12:27.682Z,4.67
2019-03-16T23:15:05.237Z,5.50
2019-03-16T23:17:42.739Z,4.67
2019-03-16T23:20:20.230Z,5.63
2019-03-16T23:22:57.718Z,4.80
2019-03-16T23:25:35.184Z,4.60
2019-03-16T23:28:12.732Z,3.93
2019-03-16T23:30:50.224Z,6.37
2019-03-16T23:33:27.756Z,4.57
2019-03-16T23:36:05.237Z,5.07
2019-03-16T23:38:42.771Z,4.20
2019-03-16T23:41:20.268Z,4.73
2019-03-16T23:43:57.797Z,3.83
2019-03-16T23:46:35.314Z,7.30
2019-03-16T23:49:12.897Z,4.00
2019-03-16T23:51:50.485Z,5.60
2019-03-16T23:54:28.124Z,4.73
2019-03-16T23:57:05.615Z,5.47
2019-03-16T23:59:43.132Z,5.03
